KTCS/TCS METAR and TAF weather

Enter ICAO airport designator
Station Type Date Time Source
KTCS METAR 2019/10/15 02:53 UTC NOAA

KTCS 150253Z AUTO 19006KT 10SM CLR 21/05 A3002 RMK AO2 SLP099 T02110050 53014 TSNO


Station Type Date Time Source
KTCS Decoded METAR 2019/10/15 02:53 UTC NOAA

TRUTH OR CONSEQUENCES MUNI, NM, United States (KTCS) 33-14N 107-16W 1469M
Oct 14, 2019 - 10:53 PM EDT / 2019.10.15 0253 UTC
Wind: from the S (190 degrees) at 7 MPH (6 KT):0
Visibility: 10 mile(s):0
Sky conditions: clear
Temperature: 70.0 F (21.1 C)
Dew Point: 41.0 F (5.0 C)
Relative Humidity: 34%
Pressure (altimeter): 30.02 in. Hg (1016 hPa)
Pressure tendency: 0.04 inches (1.4 hPa) higher than three hours ago
ob: KTCS 150253Z AUTO 19006KT 10SM CLR 21/05 A3002 RMK AO2 SLP099 T02110050 53014 TSNO
cycle: 3

Station Type Date Time Source
KTCS TAF 2019/10/14 18:30 UTC NOAA

TAF KTCS 141727Z 1418/1518 18008KT P6SM SCT090
FM150300 30006KT P6SM FEW080
FM151400 01009KT P6SM FEW100

Example: see airport list